KHRL/HRL METAR and TAF weather

Enter ICAO airport designator
Station Type Date Time Source
KHRL METAR 2020/11/25 21:52 UTC NOAA

KHRL 252152Z 10010KT 10SM FEW028 BKN042 OVC049 28/22 A2993 RMK AO2 SLP135 T02780217


Station Type Date Time Source
KHRL Decoded METAR 2020/11/25 21:52 UTC NOAA

RIO GRANDE VALLEY, TX, United States (KHRL) 26-13N 97-39W 10M
Nov 25, 2020 - 04:52 PM EST / 2020.11.25 2152 UTC
Wind: from the E (100 degrees) at 12 MPH (10 KT):0
Visibility: 10 mile(s):0
Sky conditions: overcast
Temperature: 82.0 F (27.8 C)
Dew Point: 71.1 F (21.7 C)
Relative Humidity: 69%
Pressure (altimeter): 29.93 in. Hg (1013 hPa)
ob: KHRL 252152Z 10010KT 10SM FEW028 BKN042 OVC049 28/22 A2993 RMK AO2 SLP135 T02780217
cycle: 22

Station Type Date Time Source
KHRL TAF 2020/11/25 22:06 UTC NOAA

TAF
AMD KHRL 252203Z 2522/2618 10010KT P6SM FEW028 BKN040 OVC050
FM260000 04011KT P6SM SCT017 BKN250
FM260300 03008KT P6SM SCT006 BKN029
FM261000 35006KT P6SM SCT008 BKN010

Example: see airport list